sensor_id;sensor_type;location;lat;lon;timestamp;temperature;humidity
22940;DHT22;11636;52.086;5.090;2022-07-24T00:02:53;19.70;99.90
22940;DHT22;11636;52.086;5.090;2022-07-24T00:05:40;19.70;99.90
22940;DHT22;11636;52.086;5.090;2022-07-24T00:08:34;19.60;99.90
22940;DHT22;11636;52.086;5.090;2022-07-24T00:11:21;19.60;99.90
22940;DHT22;11636;52.086;5.090;2022-07-24T00:14:15;19.60;99.90
22940;DHT22;11636;52.086;5.090;2022-07-24T00:17:09;19.50;99.90
22940;DHT22;11636;52.086;5.090;2022-07-24T00:19:56;19.50;99.90
22940;DHT22;11636;52.086;5.090;2022-07-24T00:22:50;19.50;99.90
22940;DHT22;11636;52.086;5.090;2022-07-24T00:25:43;19.50;99.90
22940;DHT22;11636;52.086;5.090;2022-07-24T00:28:31;19.50;99.90
22940;DHT22;11636;52.086;5.090;2022-07-24T00:31:32;19.50;99.90
22940;DHT22;11636;52.086;5.090;2022-07-24T00:34:19;19.50;99.90
22940;DHT22;11636;52.086;5.090;2022-07-24T00:37:14;19.50;99.90
22940;DHT22;11636;52.086;5.090;2022-07-24T00:40:01;19.50;99.90
22940;DHT22;11636;52.086;5.090;2022-07-24T00:42:55;19.50;99.90
22940;DHT22;11636;52.086;5.090;2022-07-24T00:45:49;19.50;99.90
22940;DHT22;11636;52.086;5.090;2022-07-24T00:48:44;19.50;99.90
22940;DHT22;11636;52.086;5.090;2022-07-24T00:51:33;19.50;99.90
22940;DHT22;11636;52.086;5.090;2022-07-24T00:54:27;19.50;99.90
22940;DHT22;11636;52.086;5.090;2022-07-24T00:57:14;19.50;99.90
22940;DHT22;11636;52.086;5.090;2022-07-24T01:00:08;19.50;99.90
22940;DHT22;11636;52.086;5.090;2022-07-24T01:02:56;19.50;99.90
22940;DHT22;11636;52.086;5.090;2022-07-24T01:05:50;19.50;99.90
22940;DHT22;11636;52.086;5.090;2022-07-24T01:08:37;19.40;99.90
22940;DHT22;11636;52.086;5.090;2022-07-24T01:11:31;19.40;99.90
22940;DHT22;11636;52.086;5.090;2022-07-24T01:14:25;19.40;99.90
22940;DHT22;11636;52.086;5.090;2022-07-24T01:17:19;19.30;99.90
22940;DHT22;11636;52.086;5.090;2022-07-24T01:20:08;19.30;99.90
22940;DHT22;11636;52.086;5.090;2022-07-24T01:23:02;19.20;99.90
22940;DHT22;11636;52.086;5.090;2022-07-24T01:25:49;19.20;99.90
22940;DHT22;11636;52.086;5.090;2022-07-24T01:28:44;19.20;99.90
22940;DHT22;11636;52.086;5.090;2022-07-24T01:31:31;19.20;99.90
22940;DHT22;11636;52.086;5.090;2022-07-24T01:34:25;19.20;99.90
22940;DHT22;11636;52.086;5.090;2022-07-24T01:37:12;19.10;99.90
22940;DHT22;11636;52.086;5.090;2022-07-24T01:40:06;19.10;99.90
22940;DHT22;11636;52.086;5.090;2022-07-24T01:43:00;19.10;99.90
22940;DHT22;11636;52.086;5.090;2022-07-24T01:45:54;19.10;99.90
22940;DHT22;11636;52.086;5.090;2022-07-24T01:48:48;19.10;99.90
22940;DHT22;11636;52.086;5.090;2022-07-24T01:51:35;19.10;99.90
22940;DHT22;11636;52.086;5.090;2022-07-24T01:54:29;19.10;99.90
22940;DHT22;11636;52.086;5.090;2022-07-24T01:57:16;19.00;99.90
22940;DHT22;11636;52.086;5.090;2022-07-24T02:00:10;19.00;99.90
22940;DHT22;11636;52.086;5.090;2022-07-24T02:03:00;19.00;99.90
22940;DHT22;11636;52.086;5.090;2022-07-24T02:05:54;19.00;99.90
22940;DHT22;11636;52.086;5.090;2022-07-24T02:08:41;18.90;99.90
22940;DHT22;11636;52.086;5.090;2022-07-24T02:11:35;18.90;99.90
22940;DHT22;11636;52.086;5.090;2022-07-24T02:14:22;18.90;99.90
22940;DHT22;11636;52.086;5.090;2022-07-24T02:17:16;18.90;99.90
22940;DHT22;11636;52.086;5.090;2022-07-24T02:20:04;18.90;99.90
22940;DHT22;11636;52.086;5.090;2022-07-24T02:22:58;18.90;99.90
22940;DHT22;11636;52.086;5.090;2022-07-24T02:25:46;18.90;99.90
22940;DHT22;11636;52.086;5.090;2022-07-24T02:28:40;18.90;99.90
22940;DHT22;11636;52.086;5.090;2022-07-24T02:31:27;18.80;99.90
22940;DHT22;11636;52.086;5.090;2022-07-24T02:34:21;18.80;99.90
22940;DHT22;11636;52.086;5.090;2022-07-24T02:37:15;18.80;99.90
22940;DHT22;11636;52.086;5.090;2022-07-24T02:40:03;18.70;99.90
22940;DHT22;11636;52.086;5.090;2022-07-24T02:42:57;18.70;99.90
22940;DHT22;11636;52.086;5.090;2022-07-24T02:45:44;18.70;99.90
22940;DHT22;11636;52.086;5.090;2022-07-24T02:48:39;18.70;99.90
22940;DHT22;11636;52.086;5.090;2022-07-24T02:51:26;18.60;99.90
22940;DHT22;11636;52.086;5.090;2022-07-24T02:54:20;18.60;99.90
22940;DHT22;11636;52.086;5.090;2022-07-24T02:57:14;18.60;99.90
22940;DHT22;11636;52.086;5.090;2022-07-24T03:00:06;18.60;99.90
22940;DHT22;11636;52.086;5.090;2022-07-24T03:03:01;18.60;99.90
22940;DHT22;11636;52.086;5.090;2022-07-24T03:05:55;18.50;99.90
22940;DHT22;11636;52.086;5.090;2022-07-24T03:08:49;18.50;99.90
22940;DHT22;11636;52.086;5.090;2022-07-24T03:11:43;18.40;99.90
22940;DHT22;11636;52.086;5.090;2022-07-24T03:14:30;18.40;99.90
22940;DHT22;11636;52.086;5.090;2022-07-24T03:17:24;18.40;99.90
22940;DHT22;11636;52.086;5.090;2022-07-24T03:20:11;18.40;99.90
22940;DHT22;11636;52.086;5.090;2022-07-24T03:23:05;18.40;99.90
22940;DHT22;11636;52.086;5.090;2022-07-24T03:25:52;18.40;99.90
22940;DHT22;11636;52.086;5.090;2022-07-24T03:28:47;18.40;99.90
22940;DHT22;11636;52.086;5.090;2022-07-24T03:31:34;18.40;99.90
22940;DHT22;11636;52.086;5.090;2022-07-24T03:34:28;18.40;99.90
22940;DHT22;11636;52.086;5.090;2022-07-24T03:37:22;18.40;99.90
22940;DHT22;11636;52.086;5.090;2022-07-24T03:40:16;18.40;99.90
22940;DHT22;11636;52.086;5.090;2022-07-24T03:43:03;18.40;99.90
22940;DHT22;11636;52.086;5.090;2022-07-24T03:45:57;18.40;99.90
22940;DHT22;11636;52.086;5.090;2022-07-24T03:48:44;18.40;99.90
22940;DHT22;11636;52.086;5.090;2022-07-24T03:51:38;18.40;99.90
22940;DHT22;11636;52.086;5.090;2022-07-24T03:54:25;18.30;99.90
22940;DHT22;11636;52.086;5.090;2022-07-24T03:57:19;18.30;99.90
22940;DHT22;11636;52.086;5.090;2022-07-24T04:00:07;18.30;99.90
22940;DHT22;11636;52.086;5.090;2022-07-24T04:03:02;18.30;99.90
22940;DHT22;11636;52.086;5.090;2022-07-24T04:05:49;18.30;99.90
22940;DHT22;11636;52.086;5.090;2022-07-24T04:08:43;18.30;99.90
22940;DHT22;11636;52.086;5.090;2022-07-24T04:11:30;18.30;99.90
22940;DHT22;11636;52.086;5.090;2022-07-24T04:14:24;18.30;99.90
22940;DHT22;11636;52.086;5.090;2022-07-24T04:17:11;18.20;99.90
22940;DHT22;11636;52.086;5.090;2022-07-24T04:20:05;18.20;99.90
22940;DHT22;11636;52.086;5.090;2022-07-24T04:22:59;18.20;99.90
22940;DHT22;11636;52.086;5.090;2022-07-24T04:25:47;18.20;99.90
22940;DHT22;11636;52.086;5.090;2022-07-24T04:28:41;18.20;99.90
22940;DHT22;11636;52.086;5.090;2022-07-24T04:31:29;18.20;99.90
22940;DHT22;11636;52.086;5.090;2022-07-24T04:34:22;18.20;99.90
22940;DHT22;11636;52.086;5.090;2022-07-24T04:37:09;18.20;99.90
22940;DHT22;11636;52.086;5.090;2022-07-24T04:40:03;18.20;99.90
22940;DHT22;11636;52.086;5.090;2022-07-24T04:42:50;18.20;99.90
22940;DHT22;11636;52.086;5.090;2022-07-24T04:45:44;18.20;99.90
22940;DHT22;11636;52.086;5.090;2022-07-24T04:48:38;18.20;99.90
22940;DHT22;11636;52.086;5.090;2022-07-24T04:51:32;18.30;99.90
22940;DHT22;11636;52.086;5.090;2022-07-24T04:54:25;18.30;99.90
22940;DHT22;11636;52.086;5.090;2022-07-24T04:57:19;18.30;99.90
22940;DHT22;11636;52.086;5.090;2022-07-24T05:00:08;18.30;99.90
22940;DHT22;11636;52.086;5.090;2022-07-24T05:03:02;18.30;99.90
22940;DHT22;11636;52.086;5.090;2022-07-24T05:05:49;18.30;99.90
22940;DHT22;11636;52.086;5.090;2022-07-24T05:08:43;18.30;99.90
22940;DHT22;11636;52.086;5.090;2022-07-24T05:11:30;18.30;99.90
22940;DHT22;11636;52.086;5.090;2022-07-24T05:14:24;18.40;99.90
22940;DHT22;11636;52.086;5.090;2022-07-24T05:17:11;18.40;99.90
22940;DHT22;11636;52.086;5.090;2022-07-24T05:20:06;18.40;99.90
22940;DHT22;11636;52.086;5.090;2022-07-24T05:22:54;18.40;99.90
22940;DHT22;11636;52.086;5.090;2022-07-24T05:25:47;18.40;99.90
22940;DHT22;11636;52.086;5.090;2022-07-24T05:28:41;18.40;99.90
22940;DHT22;11636;52.086;5.090;2022-07-24T05:31:28;18.40;99.90
22940;DHT22;11636;52.086;5.090;2022-07-24T05:34:27;18.40;99.90
22940;DHT22;11636;52.086;5.090;2022-07-24T05:37:27;18.50;99.90
22940;DHT22;11636;52.086;5.090;2022-07-24T05:40:20;18.50;99.90
22940;DHT22;11636;52.086;5.090;2022-07-24T05:43:07;18.50;99.90
22940;DHT22;11636;52.086;5.090;2022-07-24T05:46:01;18.50;99.90
22940;DHT22;11636;52.086;5.090;2022-07-24T05:49:00;18.50;99.90
22940;DHT22;11636;52.086;5.090;2022-07-24T05:51:55;18.50;99.90
22940;DHT22;11636;52.086;5.090;2022-07-24T05:54:42;18.50;99.90
22940;DHT22;11636;52.086;5.090;2022-07-24T05:57:36;18.50;99.90
22940;DHT22;11636;52.086;5.090;2022-07-24T06:00:30;18.50;99.90
22940;DHT22;11636;52.086;5.090;2022-07-24T06:03:24;18.60;99.90
22940;DHT22;11636;52.086;5.090;2022-07-24T06:06:24;18.60;99.90
22940;DHT22;11636;52.086;5.090;2022-07-24T06:09:11;18.60;99.90
22940;DHT22;11636;52.086;5.090;2022-07-24T06:12:06;18.70;99.90
22940;DHT22;11636;52.086;5.090;2022-07-24T06:14:53;18.70;99.90
22940;DHT22;11636;52.086;5.090;2022-07-24T06:17:47;18.70;99.90
22940;DHT22;11636;52.086;5.090;2022-07-24T06:20:35;18.80;99.90
22940;DHT22;11636;52.086;5.090;2022-07-24T06:23:28;18.90;99.90
22940;DHT22;11636;52.086;5.090;2022-07-24T06:26:15;18.90;99.90
22940;DHT22;11636;52.086;5.090;2022-07-24T06:29:09;19.00;99.90
22940;DHT22;11636;52.086;5.090;2022-07-24T06:32:05;19.00;99.90
22940;DHT22;11636;52.086;5.090;2022-07-24T06:34:59;19.10;99.90
22940;DHT22;11636;52.086;5.090;2022-07-24T06:37:54;19.20;99.90
22940;DHT22;11636;52.086;5.090;2022-07-24T06:40:43;19.20;99.90
22940;DHT22;11636;52.086;5.090;2022-07-24T06:43:36;19.30;99.90
22940;DHT22;11636;52.086;5.090;2022-07-24T06:46:30;19.40;99.90
22940;DHT22;11636;52.086;5.090;2022-07-24T06:49:17;19.40;99.90
22940;DHT22;11636;52.086;5.090;2022-07-24T06:52:11;19.40;99.90
22940;DHT22;11636;52.086;5.090;2022-07-24T06:55:06;19.60;99.90
22940;DHT22;11636;52.086;5.090;2022-07-24T06:57:59;19.60;99.90
22940;DHT22;11636;52.086;5.090;2022-07-24T07:00:47;19.70;99.90
22940;DHT22;11636;52.086;5.090;2022-07-24T07:03:41;19.80;99.90
22940;DHT22;11636;52.086;5.090;2022-07-24T07:06:35;19.90;99.90
22940;DHT22;11636;52.086;5.090;2022-07-24T07:09:29;20.00;99.90
22940;DHT22;11636;52.086;5.090;2022-07-24T07:12:23;20.10;99.90
22940;DHT22;11636;52.086;5.090;2022-07-24T07:15:11;20.20;99.90
22940;DHT22;11636;52.086;5.090;2022-07-24T07:18:05;20.30;99.90
22940;DHT22;11636;52.086;5.090;2022-07-24T07:20:52;20.40;99.90
22940;DHT22;11636;52.086;5.090;2022-07-24T07:23:49;20.50;99.90
22940;DHT22;11636;52.086;5.090;2022-07-24T07:26:42;20.60;99.90
22940;DHT22;11636;52.086;5.090;2022-07-24T07:29:29;20.90;99.90
22940;DHT22;11636;52.086;5.090;2022-07-24T07:32:23;21.10;99.90
22940;DHT22;11636;52.086;5.090;2022-07-24T07:35:18;21.30;99.90
22940;DHT22;11636;52.086;5.090;2022-07-24T07:38:14;21.40;99.90
22940;DHT22;11636;52.086;5.090;2022-07-24T07:41:12;21.40;99.90
22940;DHT22;11636;52.086;5.090;2022-07-24T07:44:00;21.40;99.90
22940;DHT22;11636;52.086;5.090;2022-07-24T07:46:54;21.50;99.90
22940;DHT22;11636;52.086;5.090;2022-07-24T07:49:48;21.50;99.90
22940;DHT22;11636;52.086;5.090;2022-07-24T07:52:36;21.50;99.90
22940;DHT22;11636;52.086;5.090;2022-07-24T07:55:29;21.40;99.90
22940;DHT22;11636;52.086;5.090;2022-07-24T07:58:23;21.30;99.90
22940;DHT22;11636;52.086;5.090;2022-07-24T08:01:11;21.10;99.90
22940;DHT22;11636;52.086;5.090;2022-07-24T08:04:05;21.10;99.90
22940;DHT22;11636;52.086;5.090;2022-07-24T08:06:52;21.10;99.90
22940;DHT22;11636;52.086;5.090;2022-07-24T08:09:46;21.20;99.90
22940;DHT22;11636;52.086;5.090;2022-07-24T08:12:42;21.30;99.90
22940;DHT22;11636;52.086;5.090;2022-07-24T08:15:29;21.40;99.90
22940;DHT22;11636;52.086;5.090;2022-07-24T08:18:23;21.50;99.90
22940;DHT22;11636;52.086;5.090;2022-07-24T08:21:17;21.70;99.90
22940;DHT22;11636;52.086;5.090;2022-07-24T08:24:11;21.90;99.90
22940;DHT22;11636;52.086;5.090;2022-07-24T08:26:59;22.10;99.90
22940;DHT22;11636;52.086;5.090;2022-07-24T08:29:52;22.20;99.90
22940;DHT22;11636;52.086;5.090;2022-07-24T08:32:41;22.40;99.90
22940;DHT22;11636;52.086;5.090;2022-07-24T08:35:36;22.50;99.90
22940;DHT22;11636;52.086;5.090;2022-07-24T08:38:23;22.60;99.90
22940;DHT22;11636;52.086;5.090;2022-07-24T08:41:18;22.60;99.90
22940;DHT22;11636;52.086;5.090;2022-07-24T08:44:12;22.70;99.90
22940;DHT22;11636;52.086;5.090;2022-07-24T08:47:07;22.80;99.90
22940;DHT22;11636;52.086;5.090;2022-07-24T08:49:58;23.00;99.90
22940;DHT22;11636;52.086;5.090;2022-07-24T08:52:53;23.00;99.90
22940;DHT22;11636;52.086;5.090;2022-07-24T08:55:40;23.10;99.90
22940;DHT22;11636;52.086;5.090;2022-07-24T08:58:38;23.30;99.90
22940;DHT22;11636;52.086;5.090;2022-07-24T09:01:32;23.40;99.90
22940;DHT22;11636;52.086;5.090;2022-07-24T09:04:43;23.40;99.90
22940;DHT22;11636;52.086;5.090;2022-07-24T09:07:32;23.50;99.90
22940;DHT22;11636;52.086;5.090;2022-07-24T09:10:28;23.60;99.90
22940;DHT22;11636;52.086;5.090;2022-07-24T09:13:16;23.70;99.90
22940;DHT22;11636;52.086;5.090;2022-07-24T09:16:20;23.90;99.90
22940;DHT22;11636;52.086;5.090;2022-07-24T09:19:12;24.00;99.90
22940;DHT22;11636;52.086;5.090;2022-07-24T09:22:06;24.10;99.90
22940;DHT22;11636;52.086;5.090;2022-07-24T09:28:08;24.20;99.90
22940;DHT22;11636;52.086;5.090;2022-07-24T09:31:01;24.20;99.90
22940;DHT22;11636;52.086;5.090;2022-07-24T09:34:04;24.20;99.90
22940;DHT22;11636;52.086;5.090;2022-07-24T09:37:04;24.30;99.90
22940;DHT22;11636;52.086;5.090;2022-07-24T09:40:07;24.50;99.50
22940;DHT22;11636;52.086;5.090;2022-07-24T09:43:27;24.50;98.30
22940;DHT22;11636;52.086;5.090;2022-07-24T09:46:24;24.50;98.90
22940;DHT22;11636;52.086;5.090;2022-07-24T09:49:19;24.60;98.60
22940;DHT22;11636;52.086;5.090;2022-07-24T09:52:17;24.70;98.60
22940;DHT22;11636;52.086;5.090;2022-07-24T09:55:22;24.70;98.70
22940;DHT22;11636;52.086;5.090;2022-07-24T09:58:18;25.00;98.90
22940;DHT22;11636;52.086;5.090;2022-07-24T10:01:15;25.00;97.60
22940;DHT22;11636;52.086;5.090;2022-07-24T10:04:10;24.90;97.40
22940;DHT22;11636;52.086;5.090;2022-07-24T10:07:12;24.80;97.50
22940;DHT22;11636;52.086;5.090;2022-07-24T10:10:07;24.70;97.60
22940;DHT22;11636;52.086;5.090;2022-07-24T10:13:00;24.60;97.50
22940;DHT22;11636;52.086;5.090;2022-07-24T10:19:04;24.40;97.80
22940;DHT22;11636;52.086;5.090;2022-07-24T10:22:00;24.40;97.90
22940;DHT22;11636;52.086;5.090;2022-07-24T10:25:05;24.50;97.80
22940;DHT22;11636;52.086;5.090;2022-07-24T10:27:54;24.60;97.70
22940;DHT22;11636;52.086;5.090;2022-07-24T10:30:52;24.90;97.60
22940;DHT22;11636;52.086;5.090;2022-07-24T10:33:41;25.20;96.90
22940;DHT22;11636;52.086;5.090;2022-07-24T10:36:41;25.30;96.10
22940;DHT22;11636;52.086;5.090;2022-07-24T10:43:08;25.50;95.80
22940;DHT22;11636;52.086;5.090;2022-07-24T10:48:50;25.70;95.60
22940;DHT22;11636;52.086;5.090;2022-07-24T10:51:58;25.80;95.10
22940;DHT22;11636;52.086;5.090;2022-07-24T11:02:23;26.20;94.80
22940;DHT22;11636;52.086;5.090;2022-07-24T11:04:46;26.20;93.90
22940;DHT22;11636;52.086;5.090;2022-07-24T11:07:34;26.30;93.60
22940;DHT22;11636;52.086;5.090;2022-07-24T11:10:48;26.30;94.00
22940;DHT22;11636;52.086;5.090;2022-07-24T11:13:43;26.60;94.20
22940;DHT22;11636;52.086;5.090;2022-07-24T11:16:37;26.90;93.90
22940;DHT22;11636;52.086;5.090;2022-07-24T11:19:32;27.00;93.30
22940;DHT22;11636;52.086;5.090;2022-07-24T11:22:38;27.10;92.80
22940;DHT22;11636;52.086;5.090;2022-07-24T11:25:33;27.20;91.60
22940;DHT22;11636;52.086;5.090;2022-07-24T11:28:27;27.20;91.70
22940;DHT22;11636;52.086;5.090;2022-07-24T11:31:15;27.10;90.90
22940;DHT22;11636;52.086;5.090;2022-07-24T11:34:10;27.10;90.60
22940;DHT22;11636;52.086;5.090;2022-07-24T11:36:59;27.10;90.80
22940;DHT22;11636;52.086;5.090;2022-07-24T11:39:59;27.10;90.60
22940;DHT22;11636;52.086;5.090;2022-07-24T11:43:04;27.10;90.80
22940;DHT22;11636;52.086;5.090;2022-07-24T11:45:57;27.30;90.90
22940;DHT22;11636;52.086;5.090;2022-07-24T11:49:03;27.30;90.80
22940;DHT22;11636;52.086;5.090;2022-07-24T11:51:52;27.40;90.40
22940;DHT22;11636;52.086;5.090;2022-07-24T11:54:48;27.30;90.40
22940;DHT22;11636;52.086;5.090;2022-07-24T11:57:38;27.50;90.20
22940;DHT22;11636;52.086;5.090;2022-07-24T12:00:52;27.60;89.50
22940;DHT22;11636;52.086;5.090;2022-07-24T12:03:53;27.70;89.80
22940;DHT22;11636;52.086;5.090;2022-07-24T12:06:48;27.90;89.50
22940;DHT22;11636;52.086;5.090;2022-07-24T12:09:46;28.00;88.80
22940;DHT22;11636;52.086;5.090;2022-07-24T12:12:40;28.20;88.30
22940;DHT22;11636;52.086;5.090;2022-07-24T12:15:38;28.30;87.30
22940;DHT22;11636;52.086;5.090;2022-07-24T12:18:25;28.40;85.50
22940;DHT22;11636;52.086;5.090;2022-07-24T12:21:22;28.30;84.80
22940;DHT22;11636;52.086;5.090;2022-07-24T12:24:10;28.20;85.20
22940;DHT22;11636;52.086;5.090;2022-07-24T12:27:04;28.30;84.60
22940;DHT22;11636;52.086;5.090;2022-07-24T12:29:51;28.30;84.40
22940;DHT22;11636;52.086;5.090;2022-07-24T12:33:19;28.50;85.30
22940;DHT22;11636;52.086;5.090;2022-07-24T12:36:11;28.60;84.30
22940;DHT22;11636;52.086;5.090;2022-07-24T12:39:05;28.70;83.60
22940;DHT22;11636;52.086;5.090;2022-07-24T12:41:52;28.70;84.00
22940;DHT22;11636;52.086;5.090;2022-07-24T12:44:46;28.70;84.00
22940;DHT22;11636;52.086;5.090;2022-07-24T12:47:34;28.60;83.60
22940;DHT22;11636;52.086;5.090;2022-07-24T12:50:28;28.60;83.70
22940;DHT22;11636;52.086;5.090;2022-07-24T12:53:37;28.70;84.90
22940;DHT22;11636;52.086;5.090;2022-07-24T12:56:33;29.00;83.80
22940;DHT22;11636;52.086;5.090;2022-07-24T12:59:22;29.20;84.10
22940;DHT22;11636;52.086;5.090;2022-07-24T13:02:22;29.30;83.00
22940;DHT22;11636;52.086;5.090;2022-07-24T13:05:41;29.40;83.40
22940;DHT22;11636;52.086;5.090;2022-07-24T13:08:28;29.50;82.40
22940;DHT22;11636;52.086;5.090;2022-07-24T13:11:22;29.50;81.50
22940;DHT22;11636;52.086;5.090;2022-07-24T13:14:10;29.50;81.50
22940;DHT22;11636;52.086;5.090;2022-07-24T13:19:55;29.50;82.50
22940;DHT22;11636;52.086;5.090;2022-07-24T13:22:49;29.60;82.10
22940;DHT22;11636;52.086;5.090;2022-07-24T13:25:43;29.70;81.70
22940;DHT22;11636;52.086;5.090;2022-07-24T13:28:32;29.80;81.60
22940;DHT22;11636;52.086;5.090;2022-07-24T13:31:26;29.70;81.00
22940;DHT22;11636;52.086;5.090;2022-07-24T13:34:21;29.60;80.20
22940;DHT22;11636;52.086;5.090;2022-07-24T13:37:15;29.70;80.90
22940;DHT22;11636;52.086;5.090;2022-07-24T13:40:02;29.80;79.40
22940;DHT22;11636;52.086;5.090;2022-07-24T13:42:58;30.00;80.50
22940;DHT22;11636;52.086;5.090;2022-07-24T13:45:51;30.10;78.40
22940;DHT22;11636;52.086;5.090;2022-07-24T13:48:45;30.00;77.50
22940;DHT22;11636;52.086;5.090;2022-07-24T13:51:44;30.00;77.90
22940;DHT22;11636;52.086;5.090;2022-07-24T13:54:31;29.90;77.90
22940;DHT22;11636;52.086;5.090;2022-07-24T13:57:25;29.80;78.20
22940;DHT22;11636;52.086;5.090;2022-07-24T14:00:13;29.70;78.70
22940;DHT22;11636;52.086;5.090;2022-07-24T14:03:07;29.70;79.10
22940;DHT22;11636;52.086;5.090;2022-07-24T14:06:14;29.90;79.50
22940;DHT22;11636;52.086;5.090;2022-07-24T14:09:08;30.00;78.40
22940;DHT22;11636;52.086;5.090;2022-07-24T14:12:02;30.20;77.50
22940;DHT22;11636;52.086;5.090;2022-07-24T14:14:59;30.30;78.10
22940;DHT22;11636;52.086;5.090;2022-07-24T14:17:53;30.60;78.30
22940;DHT22;11636;52.086;5.090;2022-07-24T14:20:40;30.90;77.50
22940;DHT22;11636;52.086;5.090;2022-07-24T14:23:34;31.00;74.90
22940;DHT22;11636;52.086;5.090;2022-07-24T14:26:21;30.90;75.00
22940;DHT22;11636;52.086;5.090;2022-07-24T14:29:15;30.80;74.80
22940;DHT22;11636;52.086;5.090;2022-07-24T14:32:09;30.60;74.40
22940;DHT22;11636;52.086;5.090;2022-07-24T14:34:56;30.60;74.90
22940;DHT22;11636;52.086;5.090;2022-07-24T14:37:50;30.60;75.30
22940;DHT22;11636;52.086;5.090;2022-07-24T14:40:37;30.80;74.80
22940;DHT22;11636;52.086;5.090;2022-07-24T14:43:31;30.90;74.00
22940;DHT22;11636;52.086;5.090;2022-07-24T14:46:25;31.00;73.70
22940;DHT22;11636;52.086;5.090;2022-07-24T14:49:19;31.10;73.50
22940;DHT22;11636;52.086;5.090;2022-07-24T14:52:13;31.10;72.70
22940;DHT22;11636;52.086;5.090;2022-07-24T14:55:08;31.20;72.60
22940;DHT22;11636;52.086;5.090;2022-07-24T14:57:55;31.40;73.00
22940;DHT22;11636;52.086;5.090;2022-07-24T15:00:49;31.40;71.20
22940;DHT22;11636;52.086;5.090;2022-07-24T15:03:43;31.20;71.20
22940;DHT22;11636;52.086;5.090;2022-07-24T15:06:37;30.60;71.70
22940;DHT22;11636;52.086;5.090;2022-07-24T15:09:32;30.20;73.70
22940;DHT22;11636;52.086;5.090;2022-07-24T15:12:26;30.00;74.80
22940;DHT22;11636;52.086;5.090;2022-07-24T15:15:13;30.30;74.00
22940;DHT22;11636;52.086;5.090;2022-07-24T15:18:07;30.70;73.60
22940;DHT22;11636;52.086;5.090;2022-07-24T15:20:54;31.10;73.20
22940;DHT22;11636;52.086;5.090;2022-07-24T15:23:48;31.40;72.20
22940;DHT22;11636;52.086;5.090;2022-07-24T15:26:36;31.30;71.50
22940;DHT22;11636;52.086;5.090;2022-07-24T15:29:30;31.00;72.00
22940;DHT22;11636;52.086;5.090;2022-07-24T15:32:25;31.20;72.90
22940;DHT22;11636;52.086;5.090;2022-07-24T15:35:19;31.40;72.90
22940;DHT22;11636;52.086;5.090;2022-07-24T15:38:13;31.60;73.00
22940;DHT22;11636;52.086;5.090;2022-07-24T15:41:07;31.70;71.30
22940;DHT22;11636;52.086;5.090;2022-07-24T15:44:01;31.50;71.30
22940;DHT22;11636;52.086;5.090;2022-07-24T15:46:56;31.50;71.10
22940;DHT22;11636;52.086;5.090;2022-07-24T15:49:56;31.50;70.90
22940;DHT22;11636;52.086;5.090;2022-07-24T15:52:50;31.50;70.70
22940;DHT22;11636;52.086;5.090;2022-07-24T15:55:37;31.50;72.10
22940;DHT22;11636;52.086;5.090;2022-07-24T15:58:31;31.50;70.40
22940;DHT22;11636;52.086;5.090;2022-07-24T16:01:18;31.40;70.80
22940;DHT22;11636;52.086;5.090;2022-07-24T16:04:31;31.60;71.80
22940;DHT22;11636;52.086;5.090;2022-07-24T16:07:19;31.80;70.60
22940;DHT22;11636;52.086;5.090;2022-07-24T16:10:13;31.90;70.30
22940;DHT22;11636;52.086;5.090;2022-07-24T16:13:07;31.90;69.10
22940;DHT22;11636;52.086;5.090;2022-07-24T16:15:54;31.50;68.10
22940;DHT22;11636;52.086;5.090;2022-07-24T16:18:48;31.40;68.30
22940;DHT22;11636;52.086;5.090;2022-07-24T16:21:35;31.20;69.60
22940;DHT22;11636;52.086;5.090;2022-07-24T16:24:32;31.30;69.90
22940;DHT22;11636;52.086;5.090;2022-07-24T16:27:19;31.50;69.70
22940;DHT22;11636;52.086;5.090;2022-07-24T16:30:13;31.70;69.40
22940;DHT22;11636;52.086;5.090;2022-07-24T16:33:07;31.70;68.10
22940;DHT22;11636;52.086;5.090;2022-07-24T16:36:21;31.40;69.00
22940;DHT22;11636;52.086;5.090;2022-07-24T16:39:15;31.20;69.50
22940;DHT22;11636;52.086;5.090;2022-07-24T16:42:28;31.00;70.20
22940;DHT22;11636;52.086;5.090;2022-07-24T16:45:21;30.90;70.70
22940;DHT22;11636;52.086;5.090;2022-07-24T16:48:27;30.70;70.40
22940;DHT22;11636;52.086;5.090;2022-07-24T16:51:21;30.50;70.80
22940;DHT22;11636;52.086;5.090;2022-07-24T16:54:29;30.40;71.10
22940;DHT22;11636;52.086;5.090;2022-07-24T16:57:17;30.30;72.10
22940;DHT22;11636;52.086;5.090;2022-07-24T17:00:10;30.20;72.40
22940;DHT22;11636;52.086;5.090;2022-07-24T17:02:58;30.30;72.70
22940;DHT22;11636;52.086;5.090;2022-07-24T17:05:52;30.40;73.20
22940;DHT22;11636;52.086;5.090;2022-07-24T17:08:46;30.50;72.90
22940;DHT22;11636;52.086;5.090;2022-07-24T17:11:33;30.50;73.30
22940;DHT22;11636;52.086;5.090;2022-07-24T17:14:27;30.50;73.30
22940;DHT22;11636;52.086;5.090;2022-07-24T17:17:15;30.40;73.50
22940;DHT22;11636;52.086;5.090;2022-07-24T17:20:08;30.20;73.50
22940;DHT22;11636;52.086;5.090;2022-07-24T17:22:56;29.90;73.90
22940;DHT22;11636;52.086;5.090;2022-07-24T17:25:49;29.80;74.30
22940;DHT22;11636;52.086;5.090;2022-07-24T17:28:37;29.60;74.40
22940;DHT22;11636;52.086;5.090;2022-07-24T17:31:30;29.50;74.30
22940;DHT22;11636;52.086;5.090;2022-07-24T17:34:24;29.50;74.40
22940;DHT22;11636;52.086;5.090;2022-07-24T17:37:12;29.50;74.60
22940;DHT22;11636;52.086;5.090;2022-07-24T17:40:11;29.50;74.90
22940;DHT22;11636;52.086;5.090;2022-07-24T17:42:58;29.40;75.20
22940;DHT22;11636;52.086;5.090;2022-07-24T17:45:52;29.40;75.20
22940;DHT22;11636;52.086;5.090;2022-07-24T17:48:46;29.30;75.30
22940;DHT22;11636;52.086;5.090;2022-07-24T17:51:40;29.30;75.50
22940;DHT22;11636;52.086;5.090;2022-07-24T17:54:35;29.20;75.90
22940;DHT22;11636;52.086;5.090;2022-07-24T17:57:22;29.20;76.10
22940;DHT22;11636;52.086;5.090;2022-07-24T18:00:16;29.20;76.00
22940;DHT22;11636;52.086;5.090;2022-07-24T18:03:05;29.10;75.60
22940;DHT22;11636;52.086;5.090;2022-07-24T18:05:59;29.10;75.80
22940;DHT22;11636;52.086;5.090;2022-07-24T18:08:47;29.00;76.20
22940;DHT22;11636;52.086;5.090;2022-07-24T18:11:40;29.00;76.30
22940;DHT22;11636;52.086;5.090;2022-07-24T18:14:34;29.00;76.50
22940;DHT22;11636;52.086;5.090;2022-07-24T18:17:21;29.00;76.60
22940;DHT22;11636;52.086;5.090;2022-07-24T18:20:15;28.90;76.80
22940;DHT22;11636;52.086;5.090;2022-07-24T18:23:02;28.90;76.80
22940;DHT22;11636;52.086;5.090;2022-07-24T18:25:56;28.90;76.60
22940;DHT22;11636;52.086;5.090;2022-07-24T18:28:44;28.90;76.70
22940;DHT22;11636;52.086;5.090;2022-07-24T18:31:37;28.80;76.80
22940;DHT22;11636;52.086;5.090;2022-07-24T18:34:31;28.90;77.70
22940;DHT22;11636;52.086;5.090;2022-07-24T18:37:26;28.90;78.70